Welcome to Bucharest LROP 222230Z 08006KT 8000 NSC 10/09 Q1014 NOSIG

 

Bucharest Overload 2017 - 04.11.2017, 16z - 21z

Autumn is here... Winter will eventually come... Temperature and due point are moving closer together... It is just a matter of time untill reaching your top of descend and the controller informs you: "low visibility procedures in operation at Otopeni".

Welcome to ROvACC's autumn overload event. This year it will be the the 4th of November, from 16 to 21 ZULU TIME

Come and fly into and out of Bucharest Romania (LROP/OTP) and have fun flying in a high traffic situation. We'll enjoy controlling you and we promise no holdings... as much as practicable, at least :)

You can take a domestic or an international, a short or a long flight, use your favourite plane or try a new one, fly with your virtual airline or leave it to faith to decide your flight details. Go to the booking page and push the "I feel lucky" button to get a real life flight happening as we speak

Be sure to check our Pilot Briefing guide, our charts and the sceneries available for Bucharest Henri Coanda International Airport as well as other airports in LRBB FIR.

days
hours
minutes
Arrivals 6 out of 60
10% arrivals booked
Departures 2 out of 60
4% departures booked
BOOK NOW PILOT BRIEFING

Please note!

This website is intended for flight simulation only. Information presented here should not be used in real life flight situations.